sensor_id;sensor_type;location;lat;lon;timestamp;P1;durP1;ratioP1;P2;durP2;ratioP2
65202;SDS011;51788;45.124;38.966;2023-08-30T00:00:57;18.10;;;8.10;;
65202;SDS011;51788;45.124;38.966;2023-08-30T00:03:23;10.55;;;5.55;;
65202;SDS011;51788;45.124;38.966;2023-08-30T00:05:49;13.50;;;6.10;;
65202;SDS011;51788;45.124;38.966;2023-08-30T00:08:15;17.85;;;4.97;;
65202;SDS011;51788;45.124;38.966;2023-08-30T00:10:45;9.40;;;2.80;;
65202;SDS011;51788;45.124;38.966;2023-08-30T00:13:11;10.23;;;5.05;;
65202;SDS011;51788;45.124;38.966;2023-08-30T00:15:38;9.07;;;5.18;;
65202;SDS011;51788;45.124;38.966;2023-08-30T00:18:04;16.42;;;3.63;;
65202;SDS011;51788;45.124;38.966;2023-08-30T00:20:30;12.93;;;4.90;;
65202;SDS011;51788;45.124;38.966;2023-08-30T00:22:56;11.93;;;4.63;;
65202;SDS011;51788;45.124;38.966;2023-08-30T00:25:22;9.75;;;5.55;;
65202;SDS011;51788;45.124;38.966;2023-08-30T00:27:48;7.70;;;5.47;;
65202;SDS011;51788;45.124;38.966;2023-08-30T00:30:14;12.98;;;2.58;;
65202;SDS011;51788;45.124;38.966;2023-08-30T00:32:40;11.52;;;2.00;;
65202;SDS011;51788;45.124;38.966;2023-08-30T00:35:06;3.17;;;2.33;;
65202;SDS011;51788;45.124;38.966;2023-08-30T00:37:32;16.60;;;3.20;;
65202;SDS011;51788;45.124;38.966;2023-08-30T00:39:58;11.30;;;2.25;;
65202;SDS011;51788;45.124;38.966;2023-08-30T00:42:26;4.53;;;1.88;;
65202;SDS011;51788;45.124;38.966;2023-08-30T00:44:53;9.88;;;2.55;;
65202;SDS011;51788;45.124;38.966;2023-08-30T00:47:19;17.25;;;2.22;;
65202;SDS011;51788;45.124;38.966;2023-08-30T00:49:45;11.90;;;2.40;;
65202;SDS011;51788;45.124;38.966;2023-08-30T00:52:11;5.15;;;2.00;;
65202;SDS011;51788;45.124;38.966;2023-08-30T00:54:38;8.15;;;1.98;;
65202;SDS011;51788;45.124;38.966;2023-08-30T00:57:04;7.43;;;2.28;;
65202;SDS011;51788;45.124;38.966;2023-08-30T00:59:32;4.65;;;1.77;;
65202;SDS011;51788;45.124;38.966;2023-08-30T01:01:59;47.03;;;2.70;;
65202;SDS011;51788;45.124;38.966;2023-08-30T01:04:27;4.50;;;1.98;;
65202;SDS011;51788;45.124;38.966;2023-08-30T01:06:53;20.52;;;3.00;;
65202;SDS011;51788;45.124;38.966;2023-08-30T01:09:19;6.25;;;2.38;;
65202;SDS011;51788;45.124;38.966;2023-08-30T01:11:48;7.40;;;2.22;;
65202;SDS011;51788;45.124;38.966;2023-08-30T01:14:18;7.13;;;2.25;;
65202;SDS011;51788;45.124;38.966;2023-08-30T01:16:48;13.37;;;2.00;;
65202;SDS011;51788;45.124;38.966;2023-08-30T01:21:58;10.00;;;2.40;;
65202;SDS011;51788;45.124;38.966;2023-08-30T01:24:40;4.53;;;2.28;;
65202;SDS011;51788;45.124;38.966;2023-08-30T01:27:12;2.47;;;2.03;;
65202;SDS011;51788;45.124;38.966;2023-08-30T01:29:42;4.00;;;2.20;;
65202;SDS011;51788;45.124;38.966;2023-08-30T01:32:10;7.90;;;3.00;;
65202;SDS011;51788;45.124;38.966;2023-08-30T01:34:37;11.38;;;2.42;;
65202;SDS011;51788;45.124;38.966;2023-08-30T01:37:08;12.70;;;2.47;;
65202;SDS011;51788;45.124;38.966;2023-08-30T01:39:35;5.10;;;3.15;;
65202;SDS011;51788;45.124;38.966;2023-08-30T01:42:03;13.85;;;2.50;;
65202;SDS011;51788;45.124;38.966;2023-08-30T01:44:30;2.60;;;2.00;;
65202;SDS011;51788;45.124;38.966;2023-08-30T01:46:57;4.05;;;2.20;;
65202;SDS011;51788;45.124;38.966;2023-08-30T01:49:25;4.97;;;2.10;;
65202;SDS011;51788;45.124;38.966;2023-08-30T01:51:54;3.53;;;1.77;;
65202;SDS011;51788;45.124;38.966;2023-08-30T01:54:23;3.42;;;2.08;;
65202;SDS011;51788;45.124;38.966;2023-08-30T01:56:50;3.40;;;2.30;;
65202;SDS011;51788;45.124;38.966;2023-08-30T01:59:16;9.18;;;1.77;;
65202;SDS011;51788;45.124;38.966;2023-08-30T02:01:42;5.25;;;2.03;;
65202;SDS011;51788;45.124;38.966;2023-08-30T02:04:08;2.53;;;2.20;;
65202;SDS011;51788;45.124;38.966;2023-08-30T02:09:27;19.25;;;2.45;;
65202;SDS011;51788;45.124;38.966;2023-08-30T02:12:00;2.15;;;1.58;;
65202;SDS011;51788;45.124;38.966;2023-08-30T02:14:32;2.97;;;2.00;;
65202;SDS011;51788;45.124;38.966;2023-08-30T02:16:58;3.78;;;2.20;;
65202;SDS011;51788;45.124;38.966;2023-08-30T02:19:24;6.38;;;2.08;;
65202;SDS011;51788;45.124;38.966;2023-08-30T02:21:51;5.40;;;2.20;;
65202;SDS011;51788;45.124;38.966;2023-08-30T02:24:17;1.92;;;1.83;;
65202;SDS011;51788;45.124;38.966;2023-08-30T02:26:43;2.28;;;2.08;;
65202;SDS011;51788;45.124;38.966;2023-08-30T02:29:09;8.25;;;2.10;;
65202;SDS011;51788;45.124;38.966;2023-08-30T02:31:36;9.75;;;2.30;;
65202;SDS011;51788;45.124;38.966;2023-08-30T02:34:02;7.63;;;2.10;;
65202;SDS011;51788;45.124;38.966;2023-08-30T02:36:29;4.57;;;1.85;;
65202;SDS011;51788;45.124;38.966;2023-08-30T02:38:55;14.25;;;2.00;;
65202;SDS011;51788;45.124;38.966;2023-08-30T02:41:21;5.28;;;2.08;;
65202;SDS011;51788;45.124;38.966;2023-08-30T02:43:47;14.80;;;2.17;;
65202;SDS011;51788;45.124;38.966;2023-08-30T02:46:13;3.83;;;2.17;;
65202;SDS011;51788;45.124;38.966;2023-08-30T02:48:39;12.40;;;2.20;;
65202;SDS011;51788;45.124;38.966;2023-08-30T02:51:07;9.77;;;2.10;;
65202;SDS011;51788;45.124;38.966;2023-08-30T02:53:33;22.55;;;3.17;;
65202;SDS011;51788;45.124;38.966;2023-08-30T02:55:58;3.60;;;2.70;;
65202;SDS011;51788;45.124;38.966;2023-08-30T02:58:24;3.50;;;2.20;;
65202;SDS011;51788;45.124;38.966;2023-08-30T03:00:56;7.63;;;2.85;;
65202;SDS011;51788;45.124;38.966;2023-08-30T03:03:22;15.18;;;2.75;;
65202;SDS011;51788;45.124;38.966;2023-08-30T03:05:48;3.65;;;2.10;;
65202;SDS011;51788;45.124;38.966;2023-08-30T03:08:14;11.82;;;2.60;;
65202;SDS011;51788;45.124;38.966;2023-08-30T03:10:40;7.28;;;2.42;;
65202;SDS011;51788;45.124;38.966;2023-08-30T03:13:07;7.47;;;2.42;;
65202;SDS011;51788;45.124;38.966;2023-08-30T03:15:33;12.27;;;3.05;;
65202;SDS011;51788;45.124;38.966;2023-08-30T03:18:00;5.50;;;2.88;;
65202;SDS011;51788;45.124;38.966;2023-08-30T03:20:26;5.50;;;2.50;;
65202;SDS011;51788;45.124;38.966;2023-08-30T03:22:56;7.75;;;2.33;;
65202;SDS011;51788;45.124;38.966;2023-08-30T03:25:23;15.38;;;2.60;;
65202;SDS011;51788;45.124;38.966;2023-08-30T03:27:49;7.95;;;2.75;;
65202;SDS011;51788;45.124;38.966;2023-08-30T03:30:16;9.88;;;2.92;;
65202;SDS011;51788;45.124;38.966;2023-08-30T03:32:42;12.35;;;3.40;;
65202;SDS011;51788;45.124;38.966;2023-08-30T03:35:08;7.38;;;2.35;;
65202;SDS011;51788;45.124;38.966;2023-08-30T03:37:34;3.92;;;2.33;;
65202;SDS011;51788;45.124;38.966;2023-08-30T03:40:00;12.80;;;3.35;;
65202;SDS011;51788;45.124;38.966;2023-08-30T03:42:27;18.10;;;3.55;;
65202;SDS011;51788;45.124;38.966;2023-08-30T03:44:53;13.77;;;3.30;;
65202;SDS011;51788;45.124;38.966;2023-08-30T03:47:18;3.47;;;2.97;;
65202;SDS011;51788;45.124;38.966;2023-08-30T03:49:44;8.88;;;3.08;;
65202;SDS011;51788;45.124;38.966;2023-08-30T03:52:12;9.50;;;3.15;;
65202;SDS011;51788;45.124;38.966;2023-08-30T03:54:38;11.35;;;3.28;;
65202;SDS011;51788;45.124;38.966;2023-08-30T03:57:04;7.85;;;2.95;;
65202;SDS011;51788;45.124;38.966;2023-08-30T03:59:30;17.67;;;4.22;;
65202;SDS011;51788;45.124;38.966;2023-08-30T04:01:56;13.73;;;3.75;;
65202;SDS011;51788;45.124;38.966;2023-08-30T04:04:22;10.95;;;3.42;;
65202;SDS011;51788;45.124;38.966;2023-08-30T04:06:48;10.85;;;3.97;;
65202;SDS011;51788;45.124;38.966;2023-08-30T04:09:15;13.40;;;3.50;;
65202;SDS011;51788;45.124;38.966;2023-08-30T04:11:41;10.25;;;3.83;;
65202;SDS011;51788;45.124;38.966;2023-08-30T04:14:07;16.63;;;5.07;;
65202;SDS011;51788;45.124;38.966;2023-08-30T04:16:34;11.18;;;3.63;;
65202;SDS011;51788;45.124;38.966;2023-08-30T04:19:00;12.70;;;3.90;;
65202;SDS011;51788;45.124;38.966;2023-08-30T04:21:28;15.85;;;5.05;;
65202;SDS011;51788;45.124;38.966;2023-08-30T04:23:54;18.20;;;4.40;;
65202;SDS011;51788;45.124;38.966;2023-08-30T04:26:20;10.95;;;4.20;;
65202;SDS011;51788;45.124;38.966;2023-08-30T04:28:46;28.20;;;3.90;;
65202;SDS011;51788;45.124;38.966;2023-08-30T04:31:12;16.60;;;4.75;;
65202;SDS011;51788;45.124;38.966;2023-08-30T04:33:39;17.27;;;4.60;;
65202;SDS011;51788;45.124;38.966;2023-08-30T04:36:05;13.07;;;4.00;;
65202;SDS011;51788;45.124;38.966;2023-08-30T04:38:31;27.17;;;4.20;;
65202;SDS011;51788;45.124;38.966;2023-08-30T04:40:57;9.63;;;4.13;;
65202;SDS011;51788;45.124;38.966;2023-08-30T04:43:25;16.77;;;5.82;;
65202;SDS011;51788;45.124;38.966;2023-08-30T04:45:51;16.23;;;4.93;;
65202;SDS011;51788;45.124;38.966;2023-08-30T04:48:17;12.48;;;4.53;;
65202;SDS011;51788;45.124;38.966;2023-08-30T04:50:43;16.23;;;4.18;;
65202;SDS011;51788;45.124;38.966;2023-08-30T04:53:09;19.50;;;6.45;;
65202;SDS011;51788;45.124;38.966;2023-08-30T04:55:35;21.13;;;6.63;;
65202;SDS011;51788;45.124;38.966;2023-08-30T04:58:01;12.15;;;5.40;;
65202;SDS011;51788;45.124;38.966;2023-08-30T05:00:32;22.83;;;6.15;;
65202;SDS011;51788;45.124;38.966;2023-08-30T05:02:58;10.18;;;5.63;;
65202;SDS011;51788;45.124;38.966;2023-08-30T05:05:26;12.07;;;5.40;;
65202;SDS011;51788;45.124;38.966;2023-08-30T05:07:52;31.25;;;5.53;;
65202;SDS011;51788;45.124;38.966;2023-08-30T05:10:18;14.02;;;5.00;;
65202;SDS011;51788;45.124;38.966;2023-08-30T05:12:44;18.60;;;5.97;;
65202;SDS011;51788;45.124;38.966;2023-08-30T05:15:14;22.23;;;5.47;;
65202;SDS011;51788;45.124;38.966;2023-08-30T05:17:41;17.42;;;6.03;;
65202;SDS011;51788;45.124;38.966;2023-08-30T05:20:07;31.25;;;6.47;;
65202;SDS011;51788;45.124;38.966;2023-08-30T05:22:33;17.95;;;6.30;;
65202;SDS011;51788;45.124;38.966;2023-08-30T05:24:59;15.93;;;5.47;;
65202;SDS011;51788;45.124;38.966;2023-08-30T05:27:26;31.65;;;5.40;;
65202;SDS011;51788;45.124;38.966;2023-08-30T05:29:52;18.75;;;5.00;;
65202;SDS011;51788;45.124;38.966;2023-08-30T05:32:18;19.75;;;4.47;;
65202;SDS011;51788;45.124;38.966;2023-08-30T05:35:03;15.50;;;3.92;;
65202;SDS011;51788;45.124;38.966;2023-08-30T05:37:46;14.98;;;3.45;;
65202;SDS011;51788;45.124;38.966;2023-08-30T05:40:35;17.55;;;3.47;;
65202;SDS011;51788;45.124;38.966;2023-08-30T05:43:02;10.07;;;3.10;;
65202;SDS011;51788;45.124;38.966;2023-08-30T05:45:28;11.63;;;3.30;;
65202;SDS011;51788;45.124;38.966;2023-08-30T05:47:54;21.70;;;3.55;;
65202;SDS011;51788;45.124;38.966;2023-08-30T05:50:19;15.23;;;3.42;;
65202;SDS011;51788;45.124;38.966;2023-08-30T05:52:45;20.15;;;3.35;;
65202;SDS011;51788;45.124;38.966;2023-08-30T05:55:11;9.65;;;3.05;;
65202;SDS011;51788;45.124;38.966;2023-08-30T05:57:37;17.52;;;3.55;;
65202;SDS011;51788;45.124;38.966;2023-08-30T06:00:03;8.63;;;3.35;;
65202;SDS011;51788;45.124;38.966;2023-08-30T06:02:39;17.27;;;3.17;;
65202;SDS011;51788;45.124;38.966;2023-08-30T06:05:05;9.80;;;3.95;;
65202;SDS011;51788;45.124;38.966;2023-08-30T06:07:31;11.60;;;3.78;;
65202;SDS011;51788;45.124;38.966;2023-08-30T06:09:58;10.73;;;3.35;;
65202;SDS011;51788;45.124;38.966;2023-08-30T06:12:24;16.02;;;3.67;;
65202;SDS011;51788;45.124;38.966;2023-08-30T06:14:51;18.20;;;4.35;;
65202;SDS011;51788;45.124;38.966;2023-08-30T06:17:18;20.30;;;3.80;;
65202;SDS011;51788;45.124;38.966;2023-08-30T06:19:45;5.40;;;3.05;;
65202;SDS011;51788;45.124;38.966;2023-08-30T06:22:11;21.50;;;3.83;;
65202;SDS011;51788;45.124;38.966;2023-08-30T06:24:38;17.05;;;3.97;;
65202;SDS011;51788;45.124;38.966;2023-08-30T06:27:04;10.10;;;3.35;;
65202;SDS011;51788;45.124;38.966;2023-08-30T06:29:30;10.23;;;3.95;;
65202;SDS011;51788;45.124;38.966;2023-08-30T06:31:56;14.32;;;3.80;;
65202;SDS011;51788;45.124;38.966;2023-08-30T06:34:22;6.20;;;3.40;;
65202;SDS011;51788;45.124;38.966;2023-08-30T06:36:48;23.58;;;3.70;;
65202;SDS011;51788;45.124;38.966;2023-08-30T06:39:14;14.30;;;3.85;;
65202;SDS011;51788;45.124;38.966;2023-08-30T06:41:40;13.98;;;3.38;;
65202;SDS011;51788;45.124;38.966;2023-08-30T06:44:06;11.40;;;3.40;;
65202;SDS011;51788;45.124;38.966;2023-08-30T06:46:32;20.75;;;3.55;;
65202;SDS011;51788;45.124;38.966;2023-08-30T06:48:58;10.52;;;3.00;;
65202;SDS011;51788;45.124;38.966;2023-08-30T06:51:24;24.45;;;4.00;;
65202;SDS011;51788;45.124;38.966;2023-08-30T06:53:50;19.80;;;3.58;;
65202;SDS011;51788;45.124;38.966;2023-08-30T06:56:16;3.33;;;2.53;;
65202;SDS011;51788;45.124;38.966;2023-08-30T06:58:42;9.65;;;3.20;;
65202;SDS011;51788;45.124;38.966;2023-08-30T07:01:08;5.65;;;3.28;;
65202;SDS011;51788;45.124;38.966;2023-08-30T07:03:34;24.10;;;3.13;;
65202;SDS011;51788;45.124;38.966;2023-08-30T07:06:00;18.48;;;4.22;;
65202;SDS011;51788;45.124;38.966;2023-08-30T07:08:26;29.30;;;10.43;;
65202;SDS011;51788;45.124;38.966;2023-08-30T07:10:52;24.08;;;5.05;;
65202;SDS011;51788;45.124;38.966;2023-08-30T07:13:18;23.30;;;8.55;;
65202;SDS011;51788;45.124;38.966;2023-08-30T07:15:44;11.23;;;4.10;;
65202;SDS011;51788;45.124;38.966;2023-08-30T07:18:10;10.35;;;3.55;;
65202;SDS011;51788;45.124;38.966;2023-08-30T07:20:36;20.15;;;4.43;;
65202;SDS011;51788;45.124;38.966;2023-08-30T07:23:04;15.77;;;6.65;;
65202;SDS011;51788;45.124;38.966;2023-08-30T07:25:30;19.65;;;4.90;;
65202;SDS011;51788;45.124;38.966;2023-08-30T07:27:59;15.38;;;7.07;;
65202;SDS011;51788;45.124;38.966;2023-08-30T07:30:25;10.60;;;4.68;;
65202;SDS011;51788;45.124;38.966;2023-08-30T07:32:51;14.65;;;4.28;;
65202;SDS011;51788;45.124;38.966;2023-08-30T07:35:17;10.93;;;4.63;;
65202;SDS011;51788;45.124;38.966;2023-08-30T07:37:43;22.42;;;5.35;;
65202;SDS011;51788;45.124;38.966;2023-08-30T07:40:09;12.82;;;4.70;;
65202;SDS011;51788;45.124;38.966;2023-08-30T07:42:35;10.88;;;4.47;;
65202;SDS011;51788;45.124;38.966;2023-08-30T07:45:01;11.38;;;5.47;;
65202;SDS011;51788;45.124;38.966;2023-08-30T07:47:29;16.75;;;5.78;;
65202;SDS011;51788;45.124;38.966;2023-08-30T07:49:55;18.58;;;6.05;;
65202;SDS011;51788;45.124;38.966;2023-08-30T07:52:21;20.60;;;4.88;;
65202;SDS011;51788;45.124;38.966;2023-08-30T07:54:47;15.30;;;4.93;;
65202;SDS011;51788;45.124;38.966;2023-08-30T07:57:13;19.88;;;6.00;;
65202;SDS011;51788;45.124;38.966;2023-08-30T07:59:39;21.35;;;6.38;;
65202;SDS011;51788;45.124;38.966;2023-08-30T08:02:06;16.23;;;5.32;;
65202;SDS011;51788;45.124;38.966;2023-08-30T08:04:36;23.33;;;5.70;;
65202;SDS011;51788;45.124;38.966;2023-08-30T08:07:02;17.63;;;6.00;;
65202;SDS011;51788;45.124;38.966;2023-08-30T08:09:30;19.40;;;5.78;;
65202;SDS011;51788;45.124;38.966;2023-08-30T08:11:56;15.77;;;5.97;;
65202;SDS011;51788;45.124;38.966;2023-08-30T08:14:25;14.32;;;5.72;;
65202;SDS011;51788;45.124;38.966;2023-08-30T08:16:51;18.85;;;6.50;;
65202;SDS011;51788;45.124;38.966;2023-08-30T08:19:17;13.63;;;5.57;;
65202;SDS011;51788;45.124;38.966;2023-08-30T08:21:43;27.73;;;5.95;;
65202;SDS011;51788;45.124;38.966;2023-08-30T08:24:09;10.52;;;5.20;;
65202;SDS011;51788;45.124;38.966;2023-08-30T08:26:35;22.75;;;5.75;;
65202;SDS011;51788;45.124;38.966;2023-08-30T08:29:01;20.67;;;5.50;;
65202;SDS011;51788;45.124;38.966;2023-08-30T08:31:27;10.98;;;5.47;;
65202;SDS011;51788;45.124;38.966;2023-08-30T08:34:06;16.88;;;6.32;;
65202;SDS011;51788;45.124;38.966;2023-08-30T08:36:40;14.07;;;4.78;;
65202;SDS011;51788;45.124;38.966;2023-08-30T08:39:07;18.08;;;5.68;;
65202;SDS011;51788;45.124;38.966;2023-08-30T08:44:09;7.10;;;4.82;;
65202;SDS011;51788;45.124;38.966;2023-08-30T08:46:36;13.65;;;5.00;;
65202;SDS011;51788;45.124;38.966;2023-08-30T08:49:25;13.10;;;4.72;;
65202;SDS011;51788;45.124;38.966;2023-08-30T08:51:53;14.20;;;5.20;;
65202;SDS011;51788;45.124;38.966;2023-08-30T08:54:20;44.47;;;5.22;;
65202;SDS011;51788;45.124;38.966;2023-08-30T08:56:46;22.33;;;4.95;;
65202;SDS011;51788;45.124;38.966;2023-08-30T08:59:12;25.30;;;5.10;;
65202;SDS011;51788;45.124;38.966;2023-08-30T09:01:38;12.65;;;4.80;;
65202;SDS011;51788;45.124;38.966;2023-08-30T09:04:08;32.33;;;6.22;;
65202;SDS011;51788;45.124;38.966;2023-08-30T09:06:35;8.32;;;4.38;;
65202;SDS011;51788;45.124;38.966;2023-08-30T09:09:02;9.52;;;4.57;;
65202;SDS011;51788;45.124;38.966;2023-08-30T09:11:29;20.65;;;4.70;;
65202;SDS011;51788;45.124;38.966;2023-08-30T09:13:55;16.85;;;4.28;;
65202;SDS011;51788;45.124;38.966;2023-08-30T09:16:21;28.27;;;7.65;;
65202;SDS011;51788;45.124;38.966;2023-08-30T09:19:00;27.77;;;6.55;;
65202;SDS011;51788;45.124;38.966;2023-08-30T09:21:26;12.10;;;4.80;;
65202;SDS011;51788;45.124;38.966;2023-08-30T09:26:29;14.75;;;5.80;;
65202;SDS011;51788;45.124;38.966;2023-08-30T09:29:03;19.65;;;4.60;;
65202;SDS011;51788;45.124;38.966;2023-08-30T09:31:38;14.73;;;4.15;;
65202;SDS011;51788;45.124;38.966;2023-08-30T09:34:07;6.85;;;4.43;;
65202;SDS011;51788;45.124;38.966;2023-08-30T09:36:34;18.05;;;4.32;;
65202;SDS011;51788;45.124;38.966;2023-08-30T09:41:42;11.85;;;4.30;;
65202;SDS011;51788;45.124;38.966;2023-08-30T09:44:10;32.20;;;6.63;;
65202;SDS011;51788;45.124;38.966;2023-08-30T09:46:40;13.45;;;4.53;;
65202;SDS011;51788;45.124;38.966;2023-08-30T09:49:10;14.32;;;4.47;;
65202;SDS011;51788;45.124;38.966;2023-08-30T09:51:38;13.82;;;4.70;;
65202;SDS011;51788;45.124;38.966;2023-08-30T09:54:10;6.85;;;3.35;;
65202;SDS011;51788;45.124;38.966;2023-08-30T09:56:44;6.30;;;4.82;;
65202;SDS011;51788;45.124;38.966;2023-08-30T09:59:11;10.13;;;4.07;;
65202;SDS011;51788;45.124;38.966;2023-08-30T10:01:38;24.42;;;4.53;;
65202;SDS011;51788;45.124;38.966;2023-08-30T10:04:06;11.07;;;4.50;;
65202;SDS011;51788;45.124;38.966;2023-08-30T10:06:34;18.58;;;5.78;;
65202;SDS011;51788;45.124;38.966;2023-08-30T10:09:05;9.77;;;4.13;;
65202;SDS011;51788;45.124;38.966;2023-08-30T10:11:34;8.35;;;4.20;;
65202;SDS011;51788;45.124;38.966;2023-08-30T10:14:05;12.95;;;5.38;;
65202;SDS011;51788;45.124;38.966;2023-08-30T10:16:45;12.63;;;4.53;;
65202;SDS011;51788;45.124;38.966;2023-08-30T10:21:44;18.38;;;4.55;;
65202;SDS011;51788;45.124;38.966;2023-08-30T10:24:11;12.63;;;4.55;;
65202;SDS011;51788;45.124;38.966;2023-08-30T10:26:41;20.45;;;4.30;;
65202;SDS011;51788;45.124;38.966;2023-08-30T10:29:09;24.20;;;5.07;;
65202;SDS011;51788;45.124;38.966;2023-08-30T10:31:38;16.83;;;4.88;;
65202;SDS011;51788;45.124;38.966;2023-08-30T10:34:11;8.50;;;4.40;;
65202;SDS011;51788;45.124;38.966;2023-08-30T10:36:41;18.70;;;5.20;;
65202;SDS011;51788;45.124;38.966;2023-08-30T10:39:11;12.25;;;4.70;;
65202;SDS011;51788;45.124;38.966;2023-08-30T10:41:53;10.57;;;4.00;;
65202;SDS011;51788;45.124;38.966;2023-08-30T10:44:23;14.70;;;5.68;;
65202;SDS011;51788;45.124;38.966;2023-08-30T10:46:53;16.13;;;5.85;;
65202;SDS011;51788;45.124;38.966;2023-08-30T10:49:19;10.05;;;4.75;;
65202;SDS011;51788;45.124;38.966;2023-08-30T10:51:54;16.10;;;4.80;;
65202;SDS011;51788;45.124;38.966;2023-08-30T10:54:36;10.15;;;4.78;;
65202;SDS011;51788;45.124;38.966;2023-08-30T10:57:03;7.97;;;4.70;;
65202;SDS011;51788;45.124;38.966;2023-08-30T10:59:29;13.43;;;4.40;;
65202;SDS011;51788;45.124;38.966;2023-08-30T11:01:55;11.80;;;4.93;;
65202;SDS011;51788;45.124;38.966;2023-08-30T11:04:22;15.75;;;4.63;;
65202;SDS011;51788;45.124;38.966;2023-08-30T11:06:49;14.45;;;5.07;;
65202;SDS011;51788;45.124;38.966;2023-08-30T11:09:20;13.00;;;5.07;;
65202;SDS011;51788;45.124;38.966;2023-08-30T11:11:48;13.10;;;5.30;;
65202;SDS011;51788;45.124;38.966;2023-08-30T11:14:16;16.08;;;5.30;;
65202;SDS011;51788;45.124;38.966;2023-08-30T11:16:43;13.98;;;5.50;;
65202;SDS011;51788;45.124;38.966;2023-08-30T11:19:10;19.13;;;4.90;;
65202;SDS011;51788;45.124;38.966;2023-08-30T11:21:38;11.52;;;5.10;;
65202;SDS011;51788;45.124;38.966;2023-08-30T11:24:05;10.95;;;4.90;;
65202;SDS011;51788;45.124;38.966;2023-08-30T11:26:32;8.57;;;4.43;;
65202;SDS011;51788;45.124;38.966;2023-08-30T11:29:05;16.60;;;4.97;;
65202;SDS011;51788;45.124;38.966;2023-08-30T11:31:32;16.38;;;6.28;;
65202;SDS011;51788;45.124;38.966;2023-08-30T11:33:59;9.57;;;5.07;;
65202;SDS011;51788;45.124;38.966;2023-08-30T11:36:26;8.27;;;4.90;;
65202;SDS011;51788;45.124;38.966;2023-08-30T11:38:56;9.80;;;4.32;;
65202;SDS011;51788;45.124;38.966;2023-08-30T11:41:23;12.85;;;5.13;;
65202;SDS011;51788;45.124;38.966;2023-08-30T11:43:53;20.10;;;5.80;;
65202;SDS011;51788;45.124;38.966;2023-08-30T11:46:20;13.85;;;5.18;;
65202;SDS011;51788;45.124;38.966;2023-08-30T11:48:47;11.13;;;4.97;;
65202;SDS011;51788;45.124;38.966;2023-08-30T11:51:15;11.15;;;5.03;;
65202;SDS011;51788;45.124;38.966;2023-08-30T11:53:42;16.60;;;4.95;;
65202;SDS011;51788;45.124;38.966;2023-08-30T11:56:10;21.23;;;5.82;;
65202;SDS011;51788;45.124;38.966;2023-08-30T11:58:37;9.88;;;4.45;;
65202;SDS011;51788;45.124;38.966;2023-08-30T12:01:03;23.55;;;5.75;;
65202;SDS011;51788;45.124;38.966;2023-08-30T12:03:30;11.43;;;6.03;;
65202;SDS011;51788;45.124;38.966;2023-08-30T12:05:57;8.05;;;5.53;;
65202;SDS011;51788;45.124;38.966;2023-08-30T12:08:33;10.20;;;5.28;;
65202;SDS011;51788;45.124;38.966;2023-08-30T12:10:59;9.48;;;5.28;;
65202;SDS011;51788;45.124;38.966;2023-08-30T12:13:29;16.00;;;5.10;;
65202;SDS011;51788;45.124;38.966;2023-08-30T12:15:57;18.52;;;5.18;;
65202;SDS011;51788;45.124;38.966;2023-08-30T12:18:27;22.05;;;6.07;;
65202;SDS011;51788;45.124;38.966;2023-08-30T12:21:00;27.13;;;5.60;;
65202;SDS011;51788;45.124;38.966;2023-08-30T12:23:29;14.27;;;5.90;;
65202;SDS011;51788;45.124;38.966;2023-08-30T12:25:56;22.15;;;5.72;;
65202;SDS011;51788;45.124;38.966;2023-08-30T12:28:26;8.40;;;5.25;;
65202;SDS011;51788;45.124;38.966;2023-08-30T12:30:54;11.32;;;5.30;;
65202;SDS011;51788;45.124;38.966;2023-08-30T12:33:20;10.65;;;5.43;;
65202;SDS011;51788;45.124;38.966;2023-08-30T12:35:47;8.50;;;5.15;;
65202;SDS011;51788;45.124;38.966;2023-08-30T12:38:13;8.73;;;5.55;;
65202;SDS011;51788;45.124;38.966;2023-08-30T12:40:52;12.05;;;5.28;;
65202;SDS011;51788;45.124;38.966;2023-08-30T12:43:19;16.20;;;5.43;;
65202;SDS011;51788;45.124;38.966;2023-08-30T12:45:46;12.25;;;4.90;;
65202;SDS011;51788;45.124;38.966;2023-08-30T12:48:13;19.23;;;5.28;;
65202;SDS011;51788;45.124;38.966;2023-08-30T12:50:41;11.48;;;4.97;;
65202;SDS011;51788;45.124;38.966;2023-08-30T12:53:10;14.60;;;5.85;;
65202;SDS011;51788;45.124;38.966;2023-08-30T12:55:36;13.20;;;5.07;;
65202;SDS011;51788;45.124;38.966;2023-08-30T12:58:06;23.25;;;5.28;;
65202;SDS011;51788;45.124;38.966;2023-08-30T13:00:33;12.90;;;5.30;;
65202;SDS011;51788;45.124;38.966;2023-08-30T13:02:59;14.90;;;5.60;;
65202;SDS011;51788;45.124;38.966;2023-08-30T13:05:25;12.65;;;5.70;;
65202;SDS011;51788;45.124;38.966;2023-08-30T13:07:52;18.17;;;5.82;;
65202;SDS011;51788;45.124;38.966;2023-08-30T13:10:18;29.55;;;6.30;;
65202;SDS011;51788;45.124;38.966;2023-08-30T13:12:44;11.02;;;6.43;;
65202;SDS011;51788;45.124;38.966;2023-08-30T13:15:10;6.18;;;5.28;;
65202;SDS011;51788;45.124;38.966;2023-08-30T13:17:36;14.15;;;5.57;;
65202;SDS011;51788;45.124;38.966;2023-08-30T13:20:03;14.60;;;5.70;;
65202;SDS011;51788;45.124;38.966;2023-08-30T13:22:30;16.45;;;6.05;;
65202;SDS011;51788;45.124;38.966;2023-08-30T13:24:56;14.30;;;6.80;;
65202;SDS011;51788;45.124;38.966;2023-08-30T13:27:22;10.07;;;6.78;;
65202;SDS011;51788;45.124;38.966;2023-08-30T13:29:48;9.90;;;5.10;;
65202;SDS011;51788;45.124;38.966;2023-08-30T13:32:14;7.18;;;4.85;;
65202;SDS011;51788;45.124;38.966;2023-08-30T13:34:40;11.50;;;5.45;;
65202;SDS011;51788;45.124;38.966;2023-08-30T13:37:09;8.52;;;6.25;;
65202;SDS011;51788;45.124;38.966;2023-08-30T13:39:35;12.02;;;5.70;;
65202;SDS011;51788;45.124;38.966;2023-08-30T13:42:01;17.35;;;5.22;;
65202;SDS011;51788;45.124;38.966;2023-08-30T13:44:27;12.40;;;6.30;;
65202;SDS011;51788;45.124;38.966;2023-08-30T13:46:52;13.98;;;6.90;;
65202;SDS011;51788;45.124;38.966;2023-08-30T13:49:18;10.57;;;5.45;;
65202;SDS011;51788;45.124;38.966;2023-08-30T13:51:45;24.85;;;5.80;;
65202;SDS011;51788;45.124;38.966;2023-08-30T13:54:11;21.02;;;5.85;;
65202;SDS011;51788;45.124;38.966;2023-08-30T13:56:37;11.23;;;5.47;;
65202;SDS011;51788;45.124;38.966;2023-08-30T13:59:03;19.83;;;6.57;;
65202;SDS011;51788;45.124;38.966;2023-08-30T14:01:31;13.45;;;6.05;;
65202;SDS011;51788;45.124;38.966;2023-08-30T14:03:57;58.60;;;16.55;;
65202;SDS011;51788;45.124;38.966;2023-08-30T14:06:24;13.85;;;7.15;;
65202;SDS011;51788;45.124;38.966;2023-08-30T14:08:50;14.30;;;7.50;;
65202;SDS011;51788;45.124;38.966;2023-08-30T14:11:16;25.50;;;5.97;;
65202;SDS011;51788;45.124;38.966;2023-08-30T14:13:42;17.20;;;6.80;;
65202;SDS011;51788;45.124;38.966;2023-08-30T14:16:07;23.48;;;6.53;;
65202;SDS011;51788;45.124;38.966;2023-08-30T14:18:35;14.02;;;7.00;;
65202;SDS011;51788;45.124;38.966;2023-08-30T14:21:01;12.75;;;6.68;;
65202;SDS011;51788;45.124;38.966;2023-08-30T14:23:28;19.23;;;9.55;;
65202;SDS011;51788;45.124;38.966;2023-08-30T14:26:02;21.33;;;8.80;;
65202;SDS011;51788;45.124;38.966;2023-08-30T14:28:34;13.93;;;6.82;;
65202;SDS011;51788;45.124;38.966;2023-08-30T14:31:03;16.17;;;7.20;;
65202;SDS011;51788;45.124;38.966;2023-08-30T14:33:31;12.40;;;7.28;;
65202;SDS011;51788;45.124;38.966;2023-08-30T14:35:57;14.60;;;7.28;;
65202;SDS011;51788;45.124;38.966;2023-08-30T14:38:23;16.40;;;6.97;;
65202;SDS011;51788;45.124;38.966;2023-08-30T14:43:22;18.60;;;7.45;;
65202;SDS011;51788;45.124;38.966;2023-08-30T14:45:48;12.82;;;7.20;;